Cactus Peak, Santa Catalina Island Weather observations

Data are for 10 minute period ending at time listed.
 Day   Time   Solar   Ave.   Ave.  Ave.  Vector    Max.   Stn.    Total
  of    of     Rad.   Air    Rel.  Wind   Wind     Wind   Baro.  Precip.
Year   Day            Temp.  Hum.  Speed  Dir.     Gust   Pres.         
2015   (PST)   W/m2    F      %     mph   deg.      mph    mb.     in.  
------------------------------------------------------------------------
 244    0:00    0.0    63   91.7     2    347.4     5.4    999.0   0.00  
 244    0:10    0.0    63   91.1     2    318.0     4.2    999.0   0.00  
 244    0:20    0.0    63   90.6     3    339.5     3.6    999.0   0.00  
 244    0:30    0.0    63   90.6     4    353.4     6.6    999.0   0.00  
 244    0:40    0.0    63   90.9     4    343.5     6.0    999.0   0.00  
 244    0:50    0.0    63   90.8     4    353.4     6.0    999.0   0.00  
 244    1:00    0.0    63   90.8     2    354.8     5.4    999.0   0.00  
 244    1:10    0.0    63   91.2     3    264.0     5.4    999.0   0.00  
 244    1:20    0.0    63   92.3     4      6.4     6.0    999.0   0.00  
 244    1:30    0.0    63   91.7     6    351.2     7.8    999.0   0.00  
 244    1:40    0.0    63   92.4     4    342.1     5.4    999.0   0.00  
 244    1:50    0.0    63   93.2     5    353.9     7.8    999.0   0.00  
 244    2:00    0.0    63   94.5     6    336.4     7.8    999.0   0.00  
 244    2:10    0.0    63   95.2     6    336.3     7.8    999.0   0.00  
 244    2:20    0.0    63   95.6     4    332.2     6.0    999.0   0.00  
 244    2:30    0.0    63   95.5     2      7.9     4.2    999.0   0.00  
 244    2:40    0.0    63   95.4     2      1.7     6.0    999.0   0.00  
 244    2:50    0.0    63   94.5     5      3.6     7.2    999.0   0.00  
 244    3:00    0.0    63   94.9     4    344.1     6.0    999.0   0.00  
 244    3:10    0.0    63   95.5     4    353.8     5.4    999.0   0.00  
 244    3:20    0.0    62   95.9     3    336.7     4.2    999.0   0.00  
 244    3:30    0.0    63   96.0     3    336.8     4.2    999.0   0.00  
 244    3:40    0.0    63   95.9     3    336.8     3.6    999.0   0.00  
 244    3:50    0.0    62   96.1     2    302.9     3.6    999.0   0.00  
 244    4:00    0.0    62   96.3     3    285.4     5.4    999.0   0.00  
 244    4:10    0.0    62   96.6     5    342.4     6.0    999.0   0.00  
 244    4:20    0.0    62   96.8     4    337.7     4.8    999.0   0.00  
 244    4:30    0.0    62   96.9     5    348.6     6.6    999.0   0.00  
 244    4:40    0.0    62   97.1     4    327.0     6.0    999.0   0.00  
 244    4:50    0.0    62   97.2     5    337.2     6.6    999.0   0.00  
 244    5:00    0.0    62   97.3     4    357.0     5.4    999.0   0.00  
 244    5:10    0.0    62   97.4     2     53.4     3.0    999.0   0.00  
 244    5:20    0.0    62   97.4     4    224.4     6.6    999.0   0.00  
 244    5:30    0.0    61   97.6     4    244.3     6.0    999.0   0.00  
 244    5:40    0.0    61   97.8     4    240.4     6.0    999.0   0.00  
 244    5:50    5.0    61   97.9     5    234.8     7.8    999.0   0.00  
 244    6:00   13.0    61   98.1     5    224.7     8.4    999.0   0.00  
 244    6:10   19.0    61   98.1     3    222.7     6.0    999.0   0.00  
 244    6:20   23.0    61   98.2     2    271.9     3.6    999.0   0.00  
 244    6:30   28.0    61   98.2     2    344.7     3.6    999.0   0.00  
 244    6:40   36.0    61   98.2     5    203.4     7.2    999.0   0.00  
 244    6:50   63.0    61   98.2     5    209.9     6.6    999.0   0.00  
 244    7:00   80.0    61   98.3     7    203.3     9.0    999.0   0.00  
 244    7:10   55.0    61   98.3     6    184.4     9.0    999.0   0.00  
 244    7:20   50.0    61   98.3     7    185.3     9.0    999.0   0.00  
 244    7:30   44.0    61   98.4     5    171.6     7.8    999.0   0.00  
 244    7:40   66.0    61   98.4     5    173.3     9.0    999.0   0.00  
 244    7:50   45.0    61   98.4     6    175.5     8.4    999.0   0.00  
 244    8:00   64.0    61   98.5     8    179.7     9.0    999.0   0.00  
 244    8:10   74.0    61   98.5     6    176.5     7.8    999.0   0.00  
 244    8:20  122.0    61   98.5     4    175.0     6.6    999.0   0.00  
 244    8:30  123.0    61   98.6     5    172.2     6.6    999.0   0.00  
 244    8:40   75.0    61   98.6     6    170.8     9.0    999.0   0.00  
 244    8:50  159.0    61   98.6     7    174.2     9.0    999.0   0.00  
 244    9:00  150.0    61   98.5     7    189.4     9.0    999.0   0.00  
 244    9:10  125.0    61   98.5     7    191.0     9.6    999.0   0.00  
 244    9:20   95.0    61   98.5     8    179.2    11.9    999.0   0.00  
 244    9:30   97.0    61   98.5     7    183.3     9.6    999.0   0.00  
 244    9:40  120.0    61   98.5     5    177.7     7.2    999.0   0.00  
 244    9:50  232.0    61   98.5     5    170.9     9.0    999.0   0.00  
 244   10:00  117.0    61   98.5     5    173.9     9.0    999.0   0.00  
 244   10:10  145.0    62   98.5     3    194.5     4.8    999.0   0.00  
 244   10:20  288.0    62   98.3     2    178.6     5.4    999.0   0.00  
 244   10:30  324.0    63   97.7     5    196.4    11.3    999.0   0.00  
 244   10:40  220.0    62   97.6    10    182.2    13.1    999.0   0.00  
 244   10:50  173.0    62   97.7     6    184.7     9.6    999.0   0.00  
 244   11:00  308.0    62   97.3     5    184.9     7.2    999.0   0.00  
 244   11:10  194.0    63   96.3     3    211.2     6.6    999.0   0.00  
 244   11:20  192.0    62   96.0     5    181.0     9.0    999.0   0.00  
 244   11:30  151.0    62   96.6     8    189.3    12.5    999.0   0.00  
 244   11:40  146.0    62   96.6     7    189.0     9.6    999.0   0.00  
 244   11:50  173.0    62   95.2     7    182.8    10.2    999.0   0.00  
 244   12:00  121.0    62   96.6     7    190.8     9.6    999.0   0.00  
 244   12:10  199.0    62   97.0     7    190.1     9.6    999.0   0.00  
 244   12:20  160.0    62   96.7     6    188.9     9.0    999.0   0.00  
 244   12:30  167.0    62   95.4     8    184.4    10.8    999.0   0.00  
 244   12:40  160.0    62   94.7     7    190.3    10.8    999.0   0.00  
 244   12:50  261.0    62   93.8     7    190.1     9.6    999.0   0.00  
 244   13:00  234.0    62   94.6     4    203.3     8.4    999.0   0.00  
 244   13:10  262.0    63   95.0     5    201.3     8.4    999.0   0.00  
 244   13:20  232.0    63   94.2     8    190.5    11.3    999.0   0.00  
 244   13:30  175.0    62   96.0     7    194.7    10.2    999.0   0.00  
 244   13:40  157.0    62   96.5     7    210.4    10.2    999.0   0.00  
 244   13:50  133.0    62   96.7     6    224.9     9.6    999.0   0.00  
 244   14:00  186.0    62   97.1     7    206.8    10.2    999.0   0.00  
 244   14:10  335.0    63   95.8     7    226.5    11.3    999.0   0.00  
 244   14:20  300.0    62   95.0     7    216.1    11.9    999.0   0.00  
 244   14:30  217.0    62   95.1     7    210.3    10.2    999.0   0.00  
 244   14:40  228.0    62   95.5     7    218.1     9.6    999.0   0.00  
 244   14:50  229.0    62   95.5     6    238.9    10.2    999.0   0.00  
 244   15:00  419.0    63   92.4     5    226.1     9.0    999.0   0.00  
 244   15:10  217.0    63   91.9     5    240.4     8.4    999.0   0.00  
 244   15:20  289.0    63   92.7     6    294.1     9.0    999.0   0.00  
 244   15:30  544.0    64   90.5     5    265.5     9.6    999.0   0.00  
 244   15:40  214.0    64   90.3     6    293.4     8.4    999.0   0.00  
 244   15:50  218.0    63   92.1     6    266.5     9.6    999.0   0.00  
 244   16:00  164.0    62   93.7     7    246.8    11.3    999.0   0.00  
 244   16:10  328.0    63   94.0     6    249.2    10.2    999.0   0.00  
 244   16:20  303.0    64   90.7     6    249.4     9.0    999.0   0.00  
 244   16:30  226.0    63   92.3     8    220.9    10.2    999.0   0.00  
 244   16:40  188.0    63   92.4     6    232.3     9.0    999.0   0.00  
 244   16:50   83.0    62   92.9     8    203.2    10.8    999.0   0.00  
 244   17:00   59.0    62   93.9     8    202.1    10.8    999.0   0.00  
 244   17:10   40.0    62   94.6    10    195.3    12.5    999.0   0.00  
 244   17:20   40.0    61   95.1     7    206.9    11.3    999.0   0.00  
 244   17:30   43.0    62   96.1     4    242.9     9.0    999.0   0.00  
 244   17:40   39.0    62   95.8     4    229.3     7.2    999.0   0.00  
 244   17:50   33.0    62   95.7     5    221.9     9.6    999.0   0.00  
 244   18:00   16.0    61   96.3     7    215.5     8.4    999.0   0.00  
 244   18:10   11.0    61   96.9     6    226.9     9.0    999.0   0.00  
 244   18:20    7.0    61   97.0     5    225.3     7.8    999.0   0.00  
 244   18:30    0.0    61   96.8     4    229.2     6.0    999.0   0.00  
 244   18:40    0.0    61   96.6     5    207.9     7.8    999.0   0.00  
 244   18:50    0.0    61   96.8     8    207.6     9.6    999.0   0.00  
 244   19:00    0.0    61   97.2     5    224.0     9.0    999.0   0.00  
 244   19:10    0.0    61   97.2     5    228.6     7.2    999.0   0.00  
 244   19:20    0.0    61   96.9     4    234.9     6.6    999.0   0.00  
 244   19:30    0.0    61   96.6     3    281.0     4.2    999.0   0.00  
 244   19:40    0.0    61   96.5     3    237.9     5.4    999.0   0.00  
 244   19:50    0.0    61   96.4     3    243.1     6.0    999.0   0.00  
 244   20:00    0.0    61   96.1     3    326.1     5.4    999.0   0.00  
 244   20:10    0.0    61   96.0     3    323.9     4.8    999.0   0.00  
 244   20:20    0.0    61   95.8     2    301.6     3.6    999.0   0.00  
 244   20:30    0.0    61   95.5     2    183.4     3.6    999.0   0.00  
 244   20:40    0.0    61   95.8     4    258.3     6.6    999.0   0.00  
 244   20:50    0.0    61   96.1     6    257.1     7.8    999.0   0.00  
 244   21:00    0.0    61   95.9     6    230.5     8.4    999.0   0.00  
 244   21:10    0.0    61   95.6     4    242.2     7.2    999.0   0.00  
 244   21:20    0.0    61   95.1     2    285.9     3.6    999.0   0.00  
 244   21:30    0.0    61   94.8     2    324.6     4.2    999.0   0.00  
 244   21:40    0.0    61   95.2     6    200.8     8.4    999.0   0.00  
 244   21:50    0.0    61   95.9     8    205.2    10.2    999.0   0.00  
 244   22:00    0.0    61   95.9     6    220.8     8.4    999.0   0.00  
 244   22:10    0.0    61   95.8     2    311.9     6.0    999.0   0.00  
 244   22:20    0.0    61   95.6     4      5.9     5.4    999.0   0.00  
 244   22:30    0.0    61   95.8     3    352.5     5.4    999.0   0.00  
 244   22:40    0.0    61   95.8     3    223.6     4.8    999.0   0.00  
 244   22:50    0.0    61   95.5     4    212.6     5.4    999.0   0.00  
 244   23:00    0.0    61   95.1     4    241.6     6.0    999.0   0.00  

Return to Cactus Peak graphs page.


Western Regional Climate Center,wrcc@dri.edu